createdAt,value
2023-04-21T00:00:18.653Z,40.40
2023-04-21T00:01:19.662Z,40.70
2023-04-21T00:02:18.732Z,43.20
2023-04-21T00:03:18.856Z,41.10
2023-04-21T00:04:18.803Z,41.10
2023-04-21T00:05:18.939Z,42.10
2023-04-21T00:06:18.617Z,40.90
2023-04-21T00:07:18.701Z,43.70
2023-04-21T00:08:18.603Z,45.00
2023-04-21T00:09:18.817Z,41.20
2023-04-21T00:10:18.586Z,42.00
2023-04-21T00:11:18.586Z,45.20
2023-04-21T00:12:18.602Z,43.90
2023-04-21T00:13:18.561Z,39.70
2023-04-21T00:14:18.552Z,39.20
2023-04-21T00:15:18.554Z,40.20
2023-04-21T00:16:18.576Z,43.30
2023-04-21T00:17:18.575Z,40.20
2023-04-21T00:18:18.525Z,40.70
2023-04-21T00:19:18.676Z,39.70
2023-04-21T00:20:18.519Z,40.60
2023-04-21T00:21:18.512Z,39.10
2023-04-21T00:22:18.517Z,39.20
2023-04-21T00:23:18.501Z,43.90
2023-04-21T00:24:18.476Z,41.10
2023-04-21T00:25:18.465Z,38.40
2023-04-21T00:26:18.470Z,41.30
2023-04-21T00:27:19.010Z,41.50
2023-04-21T00:28:18.447Z,40.70
2023-04-21T00:29:18.676Z,41.00
2023-04-21T00:30:18.434Z,38.80
2023-04-21T00:31:18.436Z,39.80
2023-04-21T00:32:18.470Z,38.50
2023-04-21T00:33:18.413Z,39.90
2023-04-21T00:34:18.403Z,39.40
2023-04-21T00:35:18.405Z,37.30
2023-04-21T00:36:18.397Z,38.50
2023-04-21T00:37:18.422Z,39.60
2023-04-21T00:38:18.373Z,39.70
2023-04-21T00:39:18.584Z,40.10
2023-04-21T00:40:18.380Z,42.50
2023-04-21T00:41:18.367Z,40.30
2023-04-21T00:42:18.366Z,38.20
2023-04-21T00:43:18.337Z,38.20
2023-04-21T00:44:18.328Z,38.70
2023-04-21T00:45:18.315Z,38.20
2023-04-21T00:46:18.379Z,38.10
2023-04-21T00:47:18.371Z,38.40
2023-04-21T00:48:18.298Z,38.60
2023-04-21T00:49:18.548Z,37.70
2023-04-21T00:50:18.282Z,38.60
2023-04-21T00:51:18.273Z,38.60
2023-04-21T00:52:18.301Z,38.50
2023-04-21T00:53:18.258Z,38.70
2023-04-21T00:54:18.247Z,37.50
2023-04-21T00:55:18.246Z,38.20
2023-04-21T00:56:18.230Z,38.50
2023-04-21T00:57:18.249Z,37.90
2023-04-21T00:58:18.223Z,37.60
2023-04-21T00:59:18.404Z,38.20
2023-04-21T01:00:18.211Z,37.00
2023-04-21T01:01:18.213Z,37.80
2023-04-21T01:02:18.332Z,38.50
2023-04-21T01:03:18.367Z,38.90
2023-04-21T01:04:19.208Z,38.30
2023-04-21T01:05:18.195Z,37.60
2023-04-21T01:06:18.294Z,36.80
2023-04-21T01:07:18.178Z,36.60
2023-04-21T01:08:18.140Z,37.90
2023-04-21T01:09:18.381Z,37.70
2023-04-21T01:10:18.128Z,37.80
2023-04-21T01:11:18.114Z,36.60
2023-04-21T01:12:18.135Z,37.20
2023-04-21T01:13:18.108Z,37.30
2023-04-21T01:14:18.096Z,37.20
2023-04-21T01:15:18.107Z,36.70
2023-04-21T01:16:18.141Z,37.30
2023-04-21T01:17:18.102Z,37.40
2023-04-21T01:18:18.090Z,37.30
2023-04-21T01:19:18.231Z,37.70
2023-04-21T01:20:18.055Z,37.60
2023-04-21T01:21:18.047Z,36.00
2023-04-21T01:22:18.033Z,38.20
2023-04-21T01:23:18.069Z,37.60
2023-04-21T01:24:18.025Z,37.50
2023-04-21T01:25:18.015Z,36.70
2023-04-21T01:26:18.005Z,37.70
2023-04-21T01:27:18.022Z,37.00
2023-04-21T01:28:18.009Z,38.30
2023-04-21T01:29:18.262Z,36.90
2023-04-21T01:30:17.966Z,35.90
2023-04-21T01:31:17.966Z,35.60
2023-04-21T01:32:18.065Z,36.10
2023-04-21T01:33:18.063Z,34.40
2023-04-21T01:34:17.940Z,36.10
2023-04-21T01:35:17.951Z,35.40
2023-04-21T01:36:17.920Z,35.50
2023-04-21T01:37:17.950Z,35.90
2023-04-21T01:38:19.309Z,35.60
2023-04-21T01:39:19.105Z,36.20
2023-04-21T01:40:17.897Z,36.70
2023-04-21T01:41:17.889Z,35.70
2023-04-21T01:42:17.883Z,35.60
2023-04-21T01:43:18.905Z,36.10
2023-04-21T01:44:17.875Z,35.30
2023-04-21T01:45:17.864Z,36.60
2023-04-21T01:46:17.888Z,35.80
2023-04-21T01:47:17.882Z,35.70
2023-04-21T01:48:17.927Z,35.70
2023-04-21T01:49:18.033Z,36.20
2023-04-21T01:50:17.832Z,36.40
2023-04-21T01:51:17.824Z,36.40
2023-04-21T01:52:17.828Z,36.20
2023-04-21T01:53:17.833Z,37.70
2023-04-21T01:54:17.802Z,36.00
2023-04-21T01:55:17.791Z,36.10
2023-04-21T01:56:17.777Z,36.30
2023-04-21T01:57:17.830Z,36.20
2023-04-21T01:58:17.759Z,36.40
2023-04-21T01:59:17.887Z,36.20
2023-04-21T02:00:17.760Z,35.30
2023-04-21T02:01:17.816Z,36.00
2023-04-21T02:02:17.800Z,36.40
2023-04-21T02:03:18.026Z,35.50
2023-04-21T02:04:17.849Z,36.40
2023-04-21T02:05:17.713Z,36.30
2023-04-21T02:06:17.700Z,36.20
2023-04-21T02:07:17.690Z,37.00
2023-04-21T02:08:17.710Z,36.00
2023-04-21T02:09:18.024Z,35.80
2023-04-21T02:10:17.669Z,35.60
2023-04-21T02:11:17.670Z,35.60
2023-04-21T02:12:17.656Z,36.40
2023-04-21T02:13:17.671Z,35.60
2023-04-21T02:14:17.639Z,37.10
2023-04-21T02:15:17.628Z,36.50
2023-04-21T02:16:17.637Z,36.50
2023-04-21T02:17:17.663Z,36.80
2023-04-21T02:18:17.635Z,35.60
2023-04-21T02:19:17.864Z,35.30
2023-04-21T02:20:17.638Z,36.20
2023-04-21T02:21:17.629Z,36.20
2023-04-21T02:22:17.577Z,36.50
2023-04-21T02:23:17.641Z,36.20
2023-04-21T02:24:17.610Z,35.30
2023-04-21T02:25:17.590Z,35.80
2023-04-21T02:26:17.560Z,36.30
2023-04-21T02:27:17.673Z,36.30
2023-04-21T02:28:17.573Z,35.20
2023-04-21T02:29:17.797Z,35.30
2023-04-21T02:30:17.601Z,35.20
2023-04-21T02:31:17.599Z,34.70
2023-04-21T02:32:25.499Z,35.20
2023-04-21T02:33:19.572Z,35.40
2023-04-21T02:34:17.491Z,36.30
2023-04-21T02:35:17.484Z,35.70
2023-04-21T02:36:17.474Z,35.30
2023-04-21T02:37:17.468Z,35.80
2023-04-21T02:38:17.500Z,35.70
2023-04-21T02:39:17.689Z,35.90
2023-04-21T02:40:17.484Z,35.40
2023-04-21T02:41:17.541Z,34.70
2023-04-21T02:42:17.444Z,35.10
2023-04-21T02:43:17.452Z,35.80
2023-04-21T02:44:17.529Z,35.30
2023-04-21T02:45:17.420Z,37.70
2023-04-21T02:46:17.696Z,36.70
2023-04-21T02:47:18.168Z,34.70
2023-04-21T02:48:17.434Z,36.10
2023-04-21T02:49:17.694Z,35.80
2023-04-21T02:50:17.392Z,35.60
2023-04-21T02:51:17.367Z,35.40
2023-04-21T02:52:17.360Z,35.20
2023-04-21T02:53:17.371Z,35.30
2023-04-21T02:54:17.337Z,35.70
2023-04-21T02:55:17.331Z,35.60
2023-04-21T02:56:17.343Z,35.10
2023-04-21T02:57:17.326Z,35.50
2023-04-21T02:58:17.356Z,36.20
2023-04-21T02:59:18.237Z,35.40
2023-04-21T03:00:17.291Z,35.90
2023-04-21T03:01:17.361Z,34.70
2023-04-21T03:02:17.360Z,34.50
2023-04-21T03:03:17.618Z,34.60
2023-04-21T03:04:17.372Z,34.60
2023-04-21T03:05:17.276Z,35.30
2023-04-21T03:06:17.259Z,34.80
2023-04-21T03:07:17.241Z,34.50
2023-04-21T03:08:17.271Z,35.20
2023-04-21T03:09:17.400Z,35.30
2023-04-21T03:10:17.217Z,35.00
2023-04-21T03:11:17.226Z,34.50
2023-04-21T03:12:17.201Z,34.50
2023-04-21T03:13:17.238Z,34.40
2023-04-21T03:14:17.206Z,35.20
2023-04-21T03:15:17.182Z,33.10
2023-04-21T03:16:17.210Z,35.20
2023-04-21T03:17:17.167Z,34.80
2023-04-21T03:18:17.188Z,35.70
2023-04-21T03:19:17.444Z,36.20
2023-04-21T03:20:17.172Z,33.90
2023-04-21T03:21:17.252Z,35.30
2023-04-21T03:22:17.286Z,34.40
2023-04-21T03:23:18.094Z,35.00
2023-04-21T03:24:17.202Z,34.60
2023-04-21T03:25:17.128Z,35.00
2023-04-21T03:26:17.110Z,34.90
2023-04-21T03:27:17.109Z,36.30
2023-04-21T03:28:17.139Z,34.40
2023-04-21T03:29:17.283Z,35.30
2023-04-21T03:30:17.099Z,34.60
2023-04-21T03:31:17.072Z,34.60
2023-04-21T03:32:17.165Z,34.60
2023-04-21T03:33:17.148Z,35.20
2023-04-21T03:34:17.107Z,34.70
2023-04-21T03:35:17.084Z,33.20
2023-04-21T03:36:17.047Z,34.00
2023-04-21T03:37:17.112Z,34.50
2023-04-21T03:38:17.080Z,33.40
2023-04-21T03:39:20.091Z,33.40
2023-04-21T03:40:18.029Z,34.70
2023-04-21T03:41:17.003Z,34.10
2023-04-21T03:42:16.983Z,34.20
2023-04-21T03:43:16.981Z,33.40
2023-04-21T03:44:17.032Z,34.60
2023-04-21T03:45:16.962Z,34.20
2023-04-21T03:46:17.054Z,34.00
2023-04-21T03:47:16.969Z,34.90
2023-04-21T03:48:16.980Z,35.00
2023-04-21T03:49:16.996Z,35.60
2023-04-21T03:50:17.965Z,34.80
2023-04-21T03:51:16.956Z,33.40
2023-04-21T03:52:16.934Z,34.00
2023-04-21T03:53:16.923Z,34.80
2023-04-21T03:54:16.924Z,34.10
2023-04-21T03:55:16.927Z,34.00
2023-04-21T03:56:16.911Z,34.70
2023-04-21T03:57:16.896Z,34.10
2023-04-21T03:58:16.889Z,34.40
2023-04-21T03:59:17.097Z,34.90
2023-04-21T04:00:16.884Z,34.70
2023-04-21T04:01:16.869Z,34.40
2023-04-21T04:02:16.953Z,34.40
2023-04-21T04:03:17.755Z,33.50
2023-04-21T04:04:17.269Z,33.90
2023-04-21T04:05:16.874Z,34.00
2023-04-21T04:06:16.834Z,34.20
2023-04-21T04:07:16.823Z,34.00
2023-04-21T04:08:16.848Z,33.80
2023-04-21T04:09:16.984Z,34.20
2023-04-21T04:10:16.812Z,34.10
2023-04-21T04:11:16.798Z,33.90
2023-04-21T04:12:16.792Z,33.90
2023-04-21T04:13:16.780Z,34.20
2023-04-21T04:14:16.931Z,34.20
2023-04-21T04:15:16.774Z,33.70
2023-04-21T04:16:16.757Z,35.40
2023-04-21T04:17:16.743Z,34.80
2023-04-21T04:18:16.757Z,33.80
2023-04-21T04:19:16.806Z,35.20
2023-04-21T04:20:16.689Z,34.20
2023-04-21T04:21:16.715Z,34.30
2023-04-21T04:22:16.708Z,34.10
2023-04-21T04:23:16.672Z,34.30
2023-04-21T04:24:16.684Z,35.00
2023-04-21T04:25:16.648Z,32.60
2023-04-21T04:26:16.685Z,35.00
2023-04-21T04:27:16.683Z,35.50
2023-04-21T04:28:16.656Z,34.30
2023-04-21T04:29:16.757Z,34.60
2023-04-21T04:30:16.670Z,33.80
2023-04-21T04:31:16.674Z,34.00
2023-04-21T04:32:16.640Z,34.00
2023-04-21T04:33:16.630Z,34.90
2023-04-21T04:34:16.649Z,33.40
2023-04-21T04:35:16.596Z,33.90
2023-04-21T04:36:16.582Z,34.50
2023-04-21T04:37:16.560Z,34.50
2023-04-21T04:38:16.557Z,33.40
2023-04-21T04:39:16.627Z,33.70
2023-04-21T04:40:16.536Z,33.90
2023-04-21T04:41:16.608Z,34.30
2023-04-21T04:42:16.718Z,33.70
2023-04-21T04:43:16.516Z,33.40
2023-04-21T04:44:16.535Z,34.10
2023-04-21T04:45:16.501Z,34.20
2023-04-21T04:46:16.544Z,33.50
2023-04-21T04:47:16.508Z,32.50
2023-04-21T04:48:16.494Z,34.60
2023-04-21T04:49:16.503Z,33.40
2023-04-21T04:50:16.479Z,32.90
2023-04-21T04:51:16.508Z,32.90
2023-04-21T04:52:16.464Z,33.20
2023-04-21T04:53:16.431Z,33.50
2023-04-21T04:54:16.509Z,32.10
2023-04-21T04:55:16.420Z,32.90
2023-04-21T04:56:16.435Z,32.50
2023-04-21T04:57:16.401Z,32.20
2023-04-21T04:58:16.416Z,32.30
2023-04-21T04:59:16.419Z,32.20
2023-04-21T05:00:16.405Z,33.00
2023-04-21T05:01:16.367Z,32.00
2023-04-21T05:02:16.478Z,32.20
2023-04-21T05:03:16.495Z,33.90
2023-04-21T05:04:16.636Z,32.50
2023-04-21T05:05:16.476Z,33.60
2023-04-21T05:06:16.341Z,32.10
2023-04-21T05:07:16.335Z,32.60
2023-04-21T05:08:17.975Z,32.20
2023-04-21T05:09:17.337Z,33.00
2023-04-21T05:10:16.320Z,32.10
2023-04-21T05:11:16.325Z,32.50
2023-04-21T05:12:16.281Z,32.40
2023-04-21T05:13:16.274Z,33.30
2023-04-21T05:14:16.293Z,32.50
2023-04-21T05:15:16.272Z,31.50
2023-04-21T05:16:16.311Z,31.60
2023-04-21T05:17:16.249Z,31.60
2023-04-21T05:18:16.231Z,31.40
2023-04-21T05:19:48.174Z,32.70
2023-04-21T05:20:16.232Z,33.70
2023-04-21T05:21:16.228Z,31.40
2023-04-21T05:22:16.237Z,32.60
2023-04-21T05:23:16.229Z,31.00
2023-04-21T05:24:16.271Z,30.50
2023-04-21T05:25:16.250Z,30.50
2023-04-21T05:26:16.182Z,30.90
2023-04-21T05:27:16.171Z,30.40
2023-04-21T05:28:16.167Z,30.30
2023-04-21T05:29:16.940Z,30.40
2023-04-21T05:30:16.158Z,31.40
2023-04-21T05:31:16.142Z,30.20
2023-04-21T05:32:16.186Z,31.20
2023-04-21T05:33:16.194Z,31.20
2023-04-21T05:34:16.196Z,31.80
2023-04-21T05:35:16.111Z,31.90
2023-04-21T05:36:16.110Z,32.10
2023-04-21T05:37:16.104Z,31.80
2023-04-21T05:38:16.211Z,31.00
2023-04-21T05:39:16.471Z,30.80
2023-04-21T05:40:16.078Z,30.90
2023-04-21T05:41:16.076Z,30.60
2023-04-21T05:42:16.070Z,30.80
2023-04-21T05:43:16.048Z,30.70
2023-04-21T05:44:16.108Z,30.70
2023-04-21T05:45:17.037Z,30.60
2023-04-21T05:46:16.137Z,31.20
2023-04-21T05:47:16.017Z,30.50
2023-04-21T05:48:16.049Z,30.50
2023-04-21T05:49:16.024Z,30.10
2023-04-21T05:50:16.011Z,30.00
2023-04-21T05:51:15.976Z,30.10
2023-04-21T05:52:15.974Z,30.30
2023-04-21T05:53:15.961Z,29.90
2023-04-21T05:54:15.978Z,29.60
2023-04-21T05:55:15.962Z,29.50
2023-04-21T05:56:15.950Z,29.80
2023-04-21T05:57:15.936Z,30.00
2023-04-21T05:58:15.930Z,30.70
2023-04-21T05:59:15.968Z,30.20
2023-04-21T06:00:15.903Z,30.60
2023-04-21T06:01:15.927Z,30.20
2023-04-21T06:02:15.958Z,30.80
2023-04-21T06:03:16.076Z,30.50
2023-04-21T06:04:16.027Z,31.80
2023-04-21T06:05:15.909Z,31.30
2023-04-21T06:06:15.888Z,33.20
2023-04-21T06:07:17.552Z,31.60
2023-04-21T06:08:15.862Z,30.40
2023-04-21T06:09:15.882Z,30.60
2023-04-21T06:10:15.844Z,29.30
2023-04-21T06:11:15.827Z,29.80
2023-04-21T06:12:15.820Z,30.50
2023-04-21T06:13:15.824Z,31.00
2023-04-21T06:14:15.846Z,30.20
2023-04-21T06:15:15.804Z,29.60
2023-04-21T06:16:15.840Z,29.40
2023-04-21T06:17:15.786Z,30.40
2023-04-21T06:18:15.799Z,30.20
2023-04-21T06:19:15.790Z,30.00
2023-04-21T06:20:15.925Z,30.40
2023-04-21T06:21:15.761Z,30.70
2023-04-21T06:22:15.842Z,30.00
2023-04-21T06:23:15.738Z,29.50
2023-04-21T06:24:15.770Z,30.50
2023-04-21T06:25:15.738Z,30.00
2023-04-21T06:26:15.711Z,30.80
2023-04-21T06:27:15.707Z,29.50
2023-04-21T06:28:15.701Z,29.80
2023-04-21T06:29:15.715Z,29.50
2023-04-21T06:30:15.693Z,30.00
2023-04-21T06:31:15.850Z,28.70
2023-04-21T06:32:15.668Z,29.60
2023-04-21T06:33:15.664Z,29.60
2023-04-21T06:34:15.686Z,28.30
2023-04-21T06:35:15.644Z,28.90
2023-04-21T06:36:17.494Z,29.00
2023-04-21T06:37:15.642Z,28.70
2023-04-21T06:38:15.665Z,28.10
2023-04-21T06:39:15.662Z,28.90
2023-04-21T06:40:15.600Z,29.10
2023-04-21T06:41:15.593Z,27.70
2023-04-21T06:42:15.586Z,28.90
2023-04-21T06:43:15.588Z,28.50
2023-04-21T06:44:15.606Z,28.80
2023-04-21T06:45:15.578Z,28.00
2023-04-21T06:46:15.555Z,27.50
2023-04-21T06:47:15.612Z,29.10
2023-04-21T06:48:15.610Z,29.00
2023-04-21T06:49:15.559Z,29.30
2023-04-21T06:50:15.528Z,28.20
2023-04-21T06:51:15.521Z,28.40
2023-04-21T06:52:16.370Z,28.80
2023-04-21T06:53:15.520Z,28.00
2023-04-21T06:54:15.575Z,28.70
2023-04-21T06:55:15.490Z,27.60
2023-04-21T06:56:15.481Z,27.10
2023-04-21T06:57:15.510Z,27.20
2023-04-21T06:58:15.461Z,27.30
2023-04-21T06:59:15.477Z,27.10
2023-04-21T07:00:15.472Z,26.00
2023-04-21T07:01:15.473Z,26.50
2023-04-21T07:02:15.444Z,26.10
2023-04-21T07:03:15.622Z,26.80
2023-04-21T07:04:15.489Z,27.20
2023-04-21T07:05:15.434Z,26.60
2023-04-21T07:06:15.499Z,26.50
2023-04-21T07:07:15.408Z,26.70
2023-04-21T07:08:15.391Z,26.90
2023-04-21T07:09:15.384Z,26.50
2023-04-21T07:10:15.410Z,25.40
2023-04-21T07:11:15.373Z,25.00
2023-04-21T07:12:15.381Z,25.60
2023-04-21T07:13:15.348Z,25.10
2023-04-21T07:14:15.378Z,25.30
2023-04-21T07:15:15.369Z,25.10
2023-04-21T07:16:15.350Z,25.40
2023-04-21T07:17:15.321Z,24.80
2023-04-21T07:18:15.358Z,25.40
2023-04-21T07:19:15.314Z,25.00
2023-04-21T07:20:15.336Z,25.50
2023-04-21T07:21:15.297Z,24.80
2023-04-21T07:22:15.287Z,24.30
2023-04-21T07:23:15.287Z,24.70
2023-04-21T07:24:15.278Z,24.60
2023-04-21T07:25:15.269Z,24.90
2023-04-21T07:26:15.280Z,24.40
2023-04-21T07:27:15.278Z,24.50
2023-04-21T07:28:15.234Z,24.50
2023-04-21T07:29:15.237Z,24.30
2023-04-21T07:30:15.230Z,24.90
2023-04-21T07:31:15.299Z,25.10
2023-04-21T07:32:15.215Z,24.30
2023-04-21T07:33:15.224Z,23.90
2023-04-21T07:34:15.198Z,24.20
2023-04-21T07:35:16.215Z,23.90
2023-04-21T07:36:15.180Z,23.70
2023-04-21T07:37:15.181Z,24.00
2023-04-21T07:38:15.163Z,22.40
2023-04-21T07:39:15.167Z,22.60
2023-04-21T07:40:15.180Z,22.70
2023-04-21T07:41:15.192Z,22.30
2023-04-21T07:42:15.128Z,22.10
2023-04-21T07:43:15.125Z,22.00
2023-04-21T07:44:15.109Z,21.80
2023-04-21T07:45:15.177Z,21.90
2023-04-21T07:46:15.135Z,22.00
2023-04-21T07:47:15.093Z,22.10
2023-04-21T07:48:15.119Z,21.60
2023-04-21T07:49:15.202Z,21.50
2023-04-21T07:50:15.114Z,21.10
2023-04-21T07:51:15.083Z,21.60
2023-04-21T07:52:15.050Z,21.50
2023-04-21T07:53:15.061Z,20.50
2023-04-21T07:54:15.038Z,21.00
2023-04-21T07:55:15.057Z,20.20
2023-04-21T07:56:15.040Z,20.30
2023-04-21T07:57:15.013Z,20.60
2023-04-21T07:58:15.008Z,20.60
2023-04-21T07:59:15.002Z,20.80
2023-04-21T08:00:15.012Z,20.90
2023-04-21T08:01:14.994Z,20.90
2023-04-21T08:02:15.079Z,20.30
2023-04-21T08:03:15.093Z,20.90
2023-04-21T08:04:15.055Z,21.20
2023-04-21T08:05:15.186Z,21.10
2023-04-21T08:06:15.103Z,20.30
2023-04-21T08:07:15.007Z,19.40
2023-04-21T08:08:14.926Z,19.90
2023-04-21T08:09:14.967Z,19.70
2023-04-21T08:10:14.937Z,20.10
2023-04-21T08:11:14.923Z,20.00
2023-04-21T08:12:15.102Z,19.90
2023-04-21T08:13:14.906Z,20.10
2023-04-21T08:14:14.882Z,19.80
2023-04-21T08:15:14.923Z,19.70
2023-04-21T08:16:14.908Z,19.00
2023-04-21T08:17:14.854Z,18.80
2023-04-21T08:18:14.932Z,18.70
2023-04-21T08:19:14.853Z,19.10
2023-04-21T08:20:14.880Z,19.10
2023-04-21T08:21:14.836Z,19.10
2023-04-21T08:22:14.822Z,18.70
2023-04-21T08:23:14.920Z,18.40
2023-04-21T08:24:14.807Z,17.80
2023-04-21T08:25:14.837Z,17.70
2023-04-21T08:26:14.862Z,17.50
2023-04-21T08:27:14.787Z,18.30
2023-04-21T08:28:14.832Z,18.80
2023-04-21T08:29:14.788Z,19.00
2023-04-21T08:30:14.795Z,18.90
2023-04-21T08:31:14.749Z,18.50
2023-04-21T08:32:14.768Z,18.30
2023-04-21T08:33:14.811Z,18.30
2023-04-21T08:34:14.744Z,18.40
2023-04-21T08:35:14.821Z,18.70
2023-04-21T08:37:15.705Z,18.10
2023-04-21T08:38:14.709Z,18.50
2023-04-21T08:39:14.692Z,19.00
2023-04-21T08:40:14.761Z,18.60
2023-04-21T08:41:14.675Z,18.10
2023-04-21T08:42:14.679Z,17.70
2023-04-21T08:43:14.705Z,17.60
2023-04-21T08:44:14.649Z,17.90
2023-04-21T08:45:14.680Z,17.40
2023-04-21T08:46:15.555Z,18.10
2023-04-21T08:47:14.701Z,17.10
2023-04-21T08:48:14.720Z,16.90
2023-04-21T08:49:14.613Z,17.20
2023-04-21T08:50:14.709Z,17.10
2023-04-21T08:51:14.599Z,16.90
2023-04-21T08:52:14.616Z,16.90
2023-04-21T08:53:14.580Z,16.80
2023-04-21T08:54:14.577Z,16.60
2023-04-21T08:55:14.627Z,17.20
2023-04-21T08:56:14.568Z,17.00
2023-04-21T08:57:16.138Z,16.60
2023-04-21T08:58:15.550Z,16.60
2023-04-21T08:59:14.535Z,16.50
2023-04-21T09:00:14.557Z,16.60
2023-04-21T09:01:14.524Z,16.40
2023-04-21T09:02:14.587Z,16.60
2023-04-21T09:03:25.016Z,16.10
2023-04-21T09:04:16.661Z,16.30
2023-04-21T09:05:14.689Z,16.00
2023-04-21T09:06:14.702Z,16.20
2023-04-21T09:07:14.486Z,16.10
2023-04-21T09:08:14.478Z,15.50
2023-04-21T09:09:14.461Z,15.60
2023-04-21T09:10:14.477Z,15.80
2023-04-21T09:11:14.470Z,15.80
2023-04-21T09:12:14.456Z,15.80
2023-04-21T09:13:14.444Z,16.40
2023-04-21T09:14:14.425Z,16.10
2023-04-21T09:15:14.444Z,15.80
2023-04-21T09:16:14.418Z,15.70
2023-04-21T09:17:14.478Z,15.60
2023-04-21T09:18:14.395Z,15.70
2023-04-21T09:19:14.385Z,15.10
2023-04-21T09:20:14.428Z,14.60
2023-04-21T09:21:14.375Z,15.90
2023-04-21T09:22:14.369Z,15.90
2023-04-21T09:23:14.379Z,15.50
2023-04-21T09:24:14.386Z,15.90
2023-04-21T09:25:14.370Z,15.90
2023-04-21T09:26:14.338Z,15.80
2023-04-21T09:27:14.328Z,16.30
2023-04-21T09:28:14.319Z,15.90
2023-04-21T09:29:14.308Z,15.60
2023-04-21T09:30:14.337Z,15.80
2023-04-21T09:31:14.393Z,15.70
2023-04-21T09:32:14.292Z,15.80
2023-04-21T09:33:27.123Z,16.40
2023-04-21T09:34:16.360Z,16.50
2023-04-21T09:35:14.291Z,16.20
2023-04-21T09:36:14.262Z,16.20
2023-04-21T09:37:15.671Z,16.70
2023-04-21T09:38:14.237Z,16.30
2023-04-21T09:39:35.706Z,16.40
2023-04-21T09:40:16.278Z,15.60
2023-04-21T09:41:14.218Z,15.60
2023-04-21T09:42:14.214Z,16.20
2023-04-21T09:43:14.204Z,15.80
2023-04-21T09:44:14.219Z,15.40
2023-04-21T09:45:32.434Z,15.00
2023-04-21T09:46:16.230Z,15.50
2023-04-21T09:47:14.173Z,15.30
2023-04-21T09:48:14.172Z,15.00
2023-04-21T09:49:14.155Z,15.10
2023-04-21T09:50:14.189Z,15.80
2023-04-21T09:51:28.675Z,15.90
2023-04-21T09:52:19.414Z,14.40
2023-04-21T09:53:15.138Z,14.80
2023-04-21T09:54:28.375Z,15.60
2023-04-21T09:55:16.133Z,15.80
2023-04-21T09:56:14.115Z,15.70
2023-04-21T09:57:14.097Z,16.00
2023-04-21T09:58:14.087Z,16.10
2023-04-21T09:59:14.093Z,16.40
2023-04-21T10:00:14.123Z,16.20
2023-04-21T10:01:14.155Z,16.80
2023-04-21T10:02:14.140Z,16.00
2023-04-21T10:03:14.161Z,15.80
2023-04-21T10:04:14.260Z,16.70
2023-04-21T10:05:15.104Z,16.60
2023-04-21T10:06:14.093Z,16.50
2023-04-21T10:07:14.120Z,16.30
2023-04-21T10:08:14.045Z,16.40
2023-04-21T10:09:14.004Z,16.50
2023-04-21T10:10:14.075Z,16.30
2023-04-21T10:11:14.067Z,16.60
2023-04-21T10:12:14.002Z,16.00
2023-04-21T10:13:13.980Z,16.70
2023-04-21T10:14:13.983Z,16.60
2023-04-21T10:15:13.959Z,16.40
2023-04-21T10:16:14.036Z,16.70
2023-04-21T10:17:14.437Z,16.70
2023-04-21T10:18:13.995Z,16.30
2023-04-21T10:19:13.932Z,16.80
2023-04-21T10:20:13.920Z,16.80
2023-04-21T10:21:14.025Z,16.60
2023-04-21T10:22:13.939Z,14.80
2023-04-21T10:23:13.905Z,15.90
2023-04-21T10:24:13.889Z,15.60
2023-04-21T10:25:13.902Z,15.70
2023-04-21T10:26:13.969Z,15.30
2023-04-21T10:27:13.926Z,15.20
2023-04-21T10:28:13.866Z,15.10
2023-04-21T10:29:13.848Z,16.00
2023-04-21T10:30:13.842Z,15.30
2023-04-21T10:31:14.072Z,15.40
2023-04-21T10:32:13.863Z,15.10
2023-04-21T10:33:13.832Z,15.20
2023-04-21T10:34:13.819Z,14.80
2023-04-21T10:35:13.814Z,15.30
2023-04-21T10:36:13.829Z,15.20
2023-04-21T10:37:13.802Z,15.40
2023-04-21T10:38:13.788Z,14.90
2023-04-21T10:39:13.772Z,14.90
2023-04-21T10:40:13.850Z,15.00
2023-04-21T10:41:13.760Z,15.20
2023-04-21T10:42:13.826Z,14.80
2023-04-21T10:43:13.778Z,15.80
2023-04-21T10:44:14.773Z,15.30
2023-04-21T10:45:13.782Z,15.30
2023-04-21T10:46:13.772Z,15.40
2023-04-21T10:47:13.852Z,14.90
2023-04-21T10:48:14.429Z,15.00
2023-04-21T10:49:13.706Z,15.00
2023-04-21T10:50:13.707Z,15.20
2023-04-21T10:51:13.696Z,15.20
2023-04-21T10:52:13.707Z,15.30
2023-04-21T10:53:13.690Z,15.10
2023-04-21T10:54:13.682Z,15.00
2023-04-21T10:55:13.692Z,15.30
2023-04-21T10:56:13.667Z,14.60
2023-04-21T10:57:13.701Z,14.80
2023-04-21T10:58:13.640Z,14.80
2023-04-21T10:59:13.633Z,14.80
2023-04-21T11:00:13.640Z,14.30
2023-04-21T11:01:13.753Z,14.10
2023-04-21T11:02:13.724Z,14.80
2023-04-21T11:03:13.716Z,14.40
2023-04-21T11:04:13.870Z,14.20
2023-04-21T11:05:13.707Z,14.30
2023-04-21T11:06:13.579Z,13.70
2023-04-21T11:07:13.618Z,13.60
2023-04-21T11:08:13.558Z,14.80
2023-04-21T11:09:13.559Z,14.30
2023-04-21T11:10:13.717Z,14.40
2023-04-21T11:11:13.533Z,13.70
2023-04-21T11:12:13.556Z,13.60
2023-04-21T11:13:13.532Z,13.20
2023-04-21T11:14:13.512Z,12.90
2023-04-21T11:15:13.581Z,12.90
2023-04-21T11:16:13.525Z,12.90
2023-04-21T11:17:13.521Z,12.00
2023-04-21T11:18:13.533Z,13.10
2023-04-21T11:19:23.412Z,12.70
2023-04-21T11:20:13.511Z,12.30
2023-04-21T11:21:13.496Z,12.30
2023-04-21T11:22:13.506Z,12.20
2023-04-21T11:23:13.463Z,11.90
2023-04-21T11:24:13.437Z,12.30
2023-04-21T11:25:13.428Z,12.30
2023-04-21T11:26:13.443Z,12.40
2023-04-21T11:27:13.448Z,12.50
2023-04-21T11:28:13.411Z,11.70
2023-04-21T11:29:13.399Z,12.60
2023-04-21T11:30:13.401Z,12.40
2023-04-21T11:31:13.585Z,12.00
2023-04-21T11:32:13.408Z,11.60
2023-04-21T11:33:13.411Z,12.10
2023-04-21T11:34:13.371Z,12.00
2023-04-21T11:35:13.356Z,11.70
2023-04-21T11:36:13.361Z,11.80
2023-04-21T11:37:13.393Z,11.00
2023-04-21T11:38:13.334Z,11.30
2023-04-21T11:39:13.335Z,11.50
2023-04-21T11:40:13.324Z,11.10
2023-04-21T11:41:13.316Z,11.20
2023-04-21T11:42:13.340Z,10.70
2023-04-21T11:43:13.385Z,10.90
2023-04-21T11:44:13.303Z,10.40
2023-04-21T11:45:13.289Z,10.90
2023-04-21T11:46:13.411Z,11.10
2023-04-21T11:47:13.317Z,10.00
2023-04-21T11:48:13.287Z,10.70
2023-04-21T11:49:13.256Z,10.60
2023-04-21T11:50:13.261Z,9.70
2023-04-21T11:51:13.241Z,9.90
2023-04-21T11:52:13.275Z,9.60
2023-04-21T11:53:13.225Z,9.00
2023-04-21T11:54:13.226Z,9.30
2023-04-21T11:55:13.225Z,9.00
2023-04-21T11:56:13.206Z,9.00
2023-04-21T11:57:13.228Z,9.10
2023-04-21T11:58:13.186Z,8.90
2023-04-21T11:59:13.182Z,8.80
2023-04-21T12:00:13.181Z,9.10
2023-04-21T12:01:13.175Z,8.80
2023-04-21T12:02:13.235Z,8.90
2023-04-21T12:03:13.234Z,8.60
2023-04-21T12:04:13.232Z,8.70
2023-04-21T12:05:13.192Z,8.40
2023-04-21T12:06:13.190Z,8.70
2023-04-21T12:07:14.156Z,8.80
2023-04-21T12:08:13.109Z,8.60
2023-04-21T12:09:13.100Z,8.10
2023-04-21T12:10:13.122Z,8.40
2023-04-21T12:11:13.092Z,8.60
2023-04-21T12:12:13.112Z,8.50
2023-04-21T12:13:13.079Z,8.30
2023-04-21T12:14:13.067Z,8.30
2023-04-21T12:15:13.167Z,8.20
2023-04-21T12:16:13.068Z,8.60
2023-04-21T12:17:13.068Z,8.90
2023-04-21T12:18:13.069Z,8.20
2023-04-21T12:19:13.023Z,8.10
2023-04-21T12:20:13.025Z,7.80
2023-04-21T12:21:13.014Z,7.40
2023-04-21T12:22:14.028Z,7.50
2023-04-21T12:23:12.985Z,7.50
2023-04-21T12:24:12.978Z,7.80
2023-04-21T12:25:12.992Z,7.50
2023-04-21T12:26:12.972Z,7.70
2023-04-21T12:27:12.997Z,7.30
2023-04-21T12:28:12.969Z,8.10
2023-04-21T12:29:13.955Z,7.20
2023-04-21T12:30:12.946Z,7.80
2023-04-21T12:31:12.958Z,7.50
2023-04-21T12:32:12.998Z,7.20
2023-04-21T12:33:13.001Z,7.70
2023-04-21T12:34:12.990Z,7.70
2023-04-21T12:35:12.905Z,7.40
2023-04-21T12:36:12.898Z,7.50
2023-04-21T12:37:12.927Z,7.40
2023-04-21T12:38:12.885Z,7.10
2023-04-21T12:39:12.883Z,7.40
2023-04-21T12:40:12.894Z,7.20
2023-04-21T12:41:12.857Z,7.10
2023-04-21T12:42:12.875Z,7.50
2023-04-21T12:43:12.861Z,7.30
2023-04-21T12:44:12.831Z,7.70
2023-04-21T12:45:12.821Z,7.20
2023-04-21T12:46:12.852Z,7.20
2023-04-21T12:47:12.836Z,7.60
2023-04-21T12:48:12.878Z,7.10
2023-04-21T12:49:12.795Z,7.30
2023-04-21T12:50:12.800Z,7.10
2023-04-21T12:51:12.780Z,7.40
2023-04-21T12:52:12.838Z,7.50
2023-04-21T12:53:12.758Z,7.10
2023-04-21T12:54:12.751Z,7.30
2023-04-21T12:55:12.765Z,7.80